createdAt,value
2019-05-20T00:01:37.863Z,30.70
2019-05-20T00:04:06.839Z,31.77
2019-05-20T00:06:35.794Z,30.63
2019-05-20T00:09:05.847Z,30.53
2019-05-20T00:11:34.823Z,30.37
2019-05-20T00:14:03.750Z,32.13
2019-05-20T00:16:32.619Z,38.38
2019-05-20T00:19:01.516Z,33.47
2019-05-20T00:21:30.429Z,31.67
2019-05-20T00:23:59.327Z,32.37
2019-05-20T00:26:28.250Z,30.97
2019-05-20T00:28:57.166Z,31.77
2019-05-20T00:31:26.125Z,30.20
2019-05-20T00:33:55.007Z,32.53
2019-05-20T00:36:23.917Z,30.43
2019-05-20T00:39:18.085Z,30.67
2019-05-20T00:41:46.982Z,30.83
2019-05-20T00:44:15.947Z,31.90
2019-05-20T00:46:44.859Z,31.40
2019-05-20T00:49:13.766Z,31.03
2019-05-20T00:51:42.678Z,31.47
2019-05-20T00:54:11.559Z,31.70
2019-05-20T00:56:40.475Z,39.53
2019-05-20T00:59:09.449Z,33.00
2019-05-20T01:01:38.363Z,40.28
2019-05-20T01:04:07.329Z,34.03
2019-05-20T01:06:36.233Z,34.43
2019-05-20T01:09:07.463Z,33.30
2019-05-20T01:11:36.392Z,32.47
2019-05-20T01:14:05.708Z,36.60
2019-05-20T01:16:34.599Z,33.97
2019-05-20T01:19:03.540Z,33.07
2019-05-20T01:21:32.470Z,32.87
2019-05-20T01:24:01.389Z,34.33
2019-05-20T01:26:30.281Z,34.97
2019-05-20T01:28:59.197Z,34.07
2019-05-20T01:31:28.121Z,32.80
2019-05-20T01:33:57.055Z,34.37
2019-05-20T01:36:25.953Z,41.58
2019-05-20T01:38:54.851Z,35.47
2019-05-20T01:41:23.852Z,35.03
2019-05-20T01:43:52.744Z,34.27
2019-05-20T01:46:21.660Z,33.97
2019-05-20T01:48:50.550Z,35.63
2019-05-20T01:51:19.463Z,34.50
2019-05-20T01:53:48.391Z,33.93
2019-05-20T01:56:17.303Z,34.60
2019-05-20T01:58:46.200Z,33.60
2019-05-20T02:01:15.121Z,33.67
2019-05-20T02:03:44.045Z,32.87
2019-05-20T02:06:13.002Z,33.83
2019-05-20T02:08:41.929Z,35.17
2019-05-20T02:11:10.822Z,33.63
2019-05-20T02:13:57.185Z,33.33
2019-05-20T02:16:26.464Z,33.60
2019-05-20T02:18:55.374Z,40.60
2019-05-20T02:21:24.257Z,34.13
2019-05-20T02:23:53.197Z,34.47
2019-05-20T02:26:22.142Z,31.63
2019-05-20T02:28:51.065Z,30.27
2019-05-20T02:31:20.009Z,30.70
2019-05-20T02:33:52.249Z,29.23
2019-05-20T02:36:17.830Z,31.33
2019-05-20T02:38:46.738Z,30.73
2019-05-20T02:41:15.641Z,29.33
2019-05-20T02:43:44.584Z,29.93
2019-05-20T02:46:13.487Z,29.07
2019-05-20T02:48:42.431Z,29.73
2019-05-20T02:51:11.334Z,28.60
2019-05-20T02:53:40.240Z,29.73
2019-05-20T02:56:09.125Z,29.67
2019-05-20T02:58:38.043Z,30.23
2019-05-20T03:01:07.069Z,28.27
2019-05-20T03:03:35.932Z,36.13
2019-05-20T03:06:04.862Z,30.27
2019-05-20T03:08:33.796Z,31.50
2019-05-20T03:11:02.777Z,30.63
2019-05-20T03:13:31.634Z,36.48
2019-05-20T03:16:00.546Z,32.43
2019-05-20T03:18:29.454Z,29.00
2019-05-20T03:20:58.357Z,30.07
2019-05-20T03:23:27.271Z,30.27
2019-05-20T03:25:56.202Z,29.73
2019-05-20T03:28:25.118Z,29.90
2019-05-20T03:30:54.061Z,29.57
2019-05-20T03:33:22.959Z,29.77
2019-05-20T03:35:51.881Z,29.13
2019-05-20T03:38:20.773Z,29.80
2019-05-20T03:40:49.755Z,29.33
2019-05-20T03:43:18.595Z,28.63
2019-05-20T03:45:47.533Z,29.93
2019-05-20T03:48:16.408Z,30.60
2019-05-20T03:50:45.327Z,30.00
2019-05-20T03:53:14.235Z,31.33
2019-05-20T03:55:43.998Z,29.77
2019-05-20T03:58:13.832Z,29.93
2019-05-20T04:00:43.171Z,29.37
2019-05-20T04:03:12.097Z,31.00
2019-05-20T04:05:41.022Z,35.70
2019-05-20T04:08:09.930Z,31.00
2019-05-20T04:10:38.866Z,30.30
2019-05-20T04:13:07.868Z,29.97
2019-05-20T04:15:36.772Z,30.20
2019-05-20T04:18:05.714Z,30.67
2019-05-20T04:20:34.619Z,30.70
2019-05-20T04:23:03.608Z,32.00
2019-05-20T04:25:32.537Z,31.87
2019-05-20T04:28:01.424Z,31.27
2019-05-20T04:30:30.338Z,30.03
2019-05-20T04:32:59.252Z,30.20
2019-05-20T04:35:28.172Z,30.97
2019-05-20T04:37:57.071Z,30.67
2019-05-20T04:40:25.996Z,30.87
2019-05-20T04:42:54.907Z,32.10
2019-05-20T04:45:23.823Z,32.33
2019-05-20T04:47:52.732Z,32.23
2019-05-20T04:50:21.648Z,38.67
2019-05-20T04:52:50.533Z,39.20
2019-05-20T04:55:19.425Z,33.43
2019-05-20T04:57:48.351Z,31.93
2019-05-20T05:00:20.139Z,30.90
2019-05-20T05:02:49.048Z,32.37
2019-05-20T05:05:17.989Z,31.17
2019-05-20T05:07:46.929Z,31.03
2019-05-20T05:10:15.842Z,30.57
2019-05-20T05:12:44.750Z,30.27
2019-05-20T05:15:13.668Z,31.93
2019-05-20T05:17:42.581Z,32.47
2019-05-20T05:20:18.221Z,32.90
2019-05-20T05:22:40.438Z,32.80
2019-05-20T05:25:09.499Z,33.17
2019-05-20T05:27:38.410Z,31.20
2019-05-20T05:30:07.608Z,33.90
2019-05-20T05:32:42.951Z,31.87
2019-05-20T05:35:13.059Z,30.73
2019-05-20T05:37:41.977Z,30.43
2019-05-20T05:40:10.918Z,30.77
2019-05-20T05:42:39.827Z,31.03
2019-05-20T05:45:08.927Z,31.93
2019-05-20T05:47:37.847Z,32.50
2019-05-20T05:50:06.992Z,32.93
2019-05-20T05:52:35.854Z,32.73
2019-05-20T05:55:04.861Z,33.23
2019-05-20T05:57:33.760Z,41.25
2019-05-20T06:00:02.721Z,35.30
2019-05-20T06:02:31.610Z,33.93
2019-05-20T06:05:00.515Z,33.80
2019-05-20T06:07:29.449Z,33.63
2019-05-20T06:09:58.344Z,42.17
2019-05-20T06:12:27.280Z,33.37
2019-05-20T06:14:56.179Z,33.93
2019-05-20T06:17:25.097Z,33.40
2019-05-20T06:19:54.002Z,35.00
2019-05-20T06:22:22.915Z,31.80
2019-05-20T06:24:51.853Z,30.77
2019-05-20T06:27:20.710Z,31.63
2019-05-20T06:29:49.604Z,31.50
2019-05-20T06:32:18.520Z,29.33
2019-05-20T06:34:47.421Z,29.10
2019-05-20T06:37:16.335Z,29.13
2019-05-20T06:39:45.242Z,28.83
2019-05-20T06:42:14.128Z,29.13
2019-05-20T06:44:52.174Z,26.10
2019-05-20T06:47:11.935Z,26.20
2019-05-20T06:49:40.845Z,27.00
2019-05-20T06:52:09.890Z,25.57
2019-05-20T06:54:38.821Z,26.20
2019-05-20T06:57:07.937Z,24.27
2019-05-20T06:59:36.793Z,26.07
2019-05-20T07:02:05.814Z,25.03
2019-05-20T07:04:34.710Z,26.47
2019-05-20T07:07:12.443Z,25.70
2019-05-20T07:09:32.589Z,25.23
2019-05-20T07:12:01.499Z,24.87
2019-05-20T07:14:30.473Z,26.03
2019-05-20T07:17:00.428Z,30.43
2019-05-20T07:19:29.355Z,28.23
2019-05-20T07:21:58.334Z,27.60
2019-05-20T07:24:27.201Z,29.00
2019-05-20T07:26:56.107Z,28.47
2019-05-20T07:29:25.050Z,28.97
2019-05-20T07:31:53.944Z,30.33
2019-05-20T07:34:22.874Z,31.17
2019-05-20T07:37:02.493Z,31.33
2019-05-20T07:39:20.693Z,30.23
2019-05-20T07:41:49.566Z,30.57
2019-05-20T07:44:18.459Z,31.17
2019-05-20T07:46:47.382Z,31.23
2019-05-20T07:49:16.398Z,31.17
2019-05-20T07:51:45.734Z,30.40
2019-05-20T07:54:14.531Z,30.77
2019-05-20T07:56:43.431Z,30.27
2019-05-20T07:59:12.364Z,29.10
2019-05-20T08:01:41.295Z,29.70
2019-05-20T08:04:10.199Z,34.58
2019-05-20T08:06:39.094Z,30.67
2019-05-20T08:09:08.214Z,30.93
2019-05-20T08:11:37.102Z,29.13
2019-05-20T08:14:06.254Z,29.30
2019-05-20T08:16:35.148Z,29.53
2019-05-20T08:19:04.198Z,35.63
2019-05-20T08:21:33.114Z,30.40
2019-05-20T08:24:02.439Z,29.10
2019-05-20T08:26:30.949Z,29.67
2019-05-20T08:28:59.835Z,29.40
2019-05-20T08:31:28.772Z,30.43
2019-05-20T08:33:57.710Z,28.93
2019-05-20T08:36:26.600Z,29.97
2019-05-20T08:38:55.498Z,30.30
2019-05-20T08:41:24.463Z,29.07
2019-05-20T08:43:53.406Z,29.13
2019-05-20T08:46:22.291Z,29.40
2019-05-20T08:48:51.230Z,30.80
2019-05-20T08:51:20.254Z,30.33
2019-05-20T08:53:49.163Z,29.27
2019-05-20T08:56:18.237Z,28.87
2019-05-20T08:58:47.257Z,29.43
2019-05-20T09:01:16.220Z,34.05
2019-05-20T09:03:45.112Z,28.43
2019-05-20T09:06:14.049Z,28.53
2019-05-20T09:08:44.476Z,27.87
2019-05-20T09:11:13.323Z,28.20
2019-05-20T09:13:42.254Z,27.00
2019-05-20T09:16:12.733Z,29.13
2019-05-20T09:18:41.632Z,27.10
2019-05-20T09:21:10.821Z,27.67
2019-05-20T09:23:39.621Z,28.92
2019-05-20T09:26:08.528Z,27.30
2019-05-20T09:28:37.450Z,28.13
2019-05-20T09:31:06.612Z,28.57
2019-05-20T09:33:35.887Z,26.83
2019-05-20T09:36:04.867Z,26.87
2019-05-20T09:38:36.901Z,26.33
2019-05-20T09:41:03.087Z,26.23
2019-05-20T09:43:32.138Z,27.60
2019-05-20T09:46:07.840Z,26.60
2019-05-20T09:48:30.080Z,25.00
2019-05-20T09:50:59.113Z,24.83
2019-05-20T09:53:28.050Z,23.23
2019-05-20T09:55:56.971Z,23.63
2019-05-20T09:58:25.899Z,23.13
2019-05-20T10:00:54.799Z,22.60
2019-05-20T10:03:23.713Z,22.03
2019-05-20T10:05:52.604Z,21.63
2019-05-20T10:08:36.147Z,23.43
2019-05-20T10:10:50.477Z,23.17
2019-05-20T10:13:19.384Z,23.57
2019-05-20T10:15:48.298Z,21.07
2019-05-20T10:18:35.631Z,20.77
2019-05-20T10:20:46.101Z,21.37
2019-05-20T10:23:15.985Z,20.50
2019-05-20T10:25:43.904Z,20.57
2019-05-20T10:28:12.845Z,21.43
2019-05-20T10:30:41.974Z,25.30
2019-05-20T10:33:11.081Z,21.50
2019-05-20T10:35:39.708Z,20.70
2019-05-20T10:38:08.690Z,20.63
2019-05-20T10:40:37.852Z,21.60
2019-05-20T10:43:07.080Z,21.45
2019-05-20T10:45:36.000Z,20.30
2019-05-20T10:48:08.594Z,21.10
2019-05-20T10:50:34.249Z,20.73
2019-05-20T10:53:03.159Z,20.67
2019-05-20T10:55:32.204Z,20.33
2019-05-20T10:58:00.994Z,20.93
2019-05-20T11:00:29.895Z,20.60
2019-05-20T11:02:58.808Z,20.10
2019-05-20T11:05:27.718Z,19.17
2019-05-20T11:07:56.870Z,22.17
2019-05-20T11:10:26.088Z,19.15
2019-05-20T11:12:55.200Z,18.17
2019-05-20T11:15:24.725Z,18.27
2019-05-20T11:17:53.942Z,19.80
2019-05-20T11:20:25.517Z,19.82
2019-05-20T11:22:54.787Z,20.72
2019-05-20T11:25:23.882Z,19.30
2019-05-20T11:27:53.073Z,19.17
2019-05-20T11:30:22.060Z,19.25
2019-05-20T11:32:51.005Z,19.50
2019-05-20T11:35:19.877Z,19.52
2019-05-20T11:37:48.760Z,20.35
2019-05-20T11:40:17.651Z,19.90
2019-05-20T11:42:46.577Z,22.13
2019-05-20T11:45:15.482Z,21.82
2019-05-20T11:47:44.531Z,21.10
2019-05-20T11:50:13.430Z,21.12
2019-05-20T11:52:42.346Z,21.75
2019-05-20T11:55:11.257Z,21.70
2019-05-20T11:57:40.186Z,23.73
2019-05-20T12:00:09.169Z,22.33
2019-05-20T12:02:38.111Z,23.43
2019-05-20T12:05:07.411Z,24.67
2019-05-20T12:07:36.288Z,25.27
2019-05-20T12:10:05.879Z,25.45
2019-05-20T12:12:34.764Z,25.33
2019-05-20T12:15:04.960Z,25.30
2019-05-20T12:17:32.874Z,24.50
2019-05-20T12:20:02.040Z,24.75
2019-05-20T12:22:35.411Z,24.40
2019-05-20T12:25:04.681Z,25.17
2019-05-20T12:27:33.609Z,25.03
2019-05-20T12:30:02.536Z,25.93
2019-05-20T12:32:31.580Z,26.80
2019-05-20T12:35:00.464Z,26.20
2019-05-20T12:37:29.365Z,26.53
2019-05-20T12:40:06.919Z,26.13
2019-05-20T12:42:27.358Z,25.75
2019-05-20T12:44:56.290Z,26.07
2019-05-20T12:47:25.200Z,26.73
2019-05-20T12:49:54.129Z,25.25
2019-05-20T12:52:23.031Z,26.53
2019-05-20T12:55:07.274Z,26.80
2019-05-20T12:57:20.837Z,23.67
2019-05-20T12:59:49.743Z,24.75
2019-05-20T13:02:18.634Z,23.57
2019-05-20T13:04:47.536Z,25.27
2019-05-20T13:07:16.431Z,25.57
2019-05-20T13:09:45.334Z,24.27
2019-05-20T13:12:14.243Z,23.30
2019-05-20T13:14:43.152Z,24.40
2019-05-20T13:17:12.088Z,23.33
2019-05-20T13:19:40.988Z,23.47
2019-05-20T13:22:09.954Z,23.35
2019-05-20T13:24:38.857Z,22.45
2019-05-20T13:27:07.901Z,23.83
2019-05-20T13:29:36.757Z,23.67
2019-05-20T13:32:05.912Z,24.30
2019-05-20T13:34:34.779Z,22.62
2019-05-20T13:37:03.692Z,24.80
2019-05-20T13:39:32.599Z,22.95
2019-05-20T13:42:01.485Z,23.62
2019-05-20T13:44:30.447Z,22.60
2019-05-20T13:46:59.314Z,23.70
2019-05-20T13:49:28.228Z,24.47
2019-05-20T13:51:57.153Z,22.77
2019-05-20T13:54:26.198Z,22.62
2019-05-20T13:56:54.950Z,21.55
2019-05-20T13:59:23.853Z,23.90
2019-05-20T14:01:52.739Z,23.92
2019-05-20T14:04:21.687Z,23.65
2019-05-20T14:06:50.558Z,23.73
2019-05-20T14:09:19.468Z,23.22
2019-05-20T14:11:48.372Z,24.20
2019-05-20T14:14:17.285Z,28.87
2019-05-20T14:16:46.168Z,25.77
2019-05-20T14:19:15.087Z,24.35
2019-05-20T14:21:43.966Z,24.47
2019-05-20T14:24:12.849Z,23.98
2019-05-20T14:26:41.751Z,25.00
2019-05-20T14:29:10.677Z,25.43
2019-05-20T14:31:39.617Z,25.50
2019-05-20T14:34:08.664Z,27.40
2019-05-20T14:36:39.883Z,24.95
2019-05-20T14:39:06.943Z,24.87
2019-05-20T14:41:35.886Z,24.43
2019-05-20T14:44:04.810Z,24.47
2019-05-20T14:46:33.706Z,24.10
2019-05-20T14:49:02.944Z,24.45
2019-05-20T14:51:31.540Z,23.22
2019-05-20T14:54:00.440Z,26.93
2019-05-20T14:56:29.367Z,24.45
2019-05-20T14:58:58.258Z,22.93
2019-05-20T15:01:27.156Z,22.40
2019-05-20T15:03:56.037Z,23.15
2019-05-20T15:06:24.963Z,23.10
2019-05-20T15:08:53.905Z,22.90
2019-05-20T15:11:37.172Z,21.95
2019-05-20T15:13:51.736Z,22.85
2019-05-20T15:16:20.669Z,22.42
2019-05-20T15:18:49.573Z,22.50
2019-05-20T15:21:18.771Z,21.90
2019-05-20T15:23:47.369Z,21.45
2019-05-20T15:26:16.255Z,22.73
2019-05-20T15:28:45.158Z,22.45
2019-05-20T15:31:14.062Z,23.92
2019-05-20T15:33:42.965Z,24.12
2019-05-20T15:36:11.878Z,22.73
2019-05-20T15:38:40.809Z,26.00
2019-05-20T15:41:09.716Z,22.98
2019-05-20T15:43:38.601Z,23.20
2019-05-20T15:46:07.663Z,22.22
2019-05-20T15:48:36.545Z,23.45
2019-05-20T15:51:05.462Z,23.85
2019-05-20T15:53:34.353Z,23.80
2019-05-20T15:56:03.362Z,23.70
2019-05-20T15:58:32.223Z,23.60
2019-05-20T16:01:01.122Z,25.23
2019-05-20T16:03:30.005Z,26.50
2019-05-20T16:05:59.973Z,25.65
2019-05-20T16:08:27.830Z,24.37
2019-05-20T16:10:56.740Z,24.57
2019-05-20T16:13:25.638Z,23.52
2019-05-20T16:15:54.541Z,24.23
2019-05-20T16:18:23.435Z,25.32
2019-05-20T16:20:52.331Z,25.43
2019-05-20T16:23:21.229Z,25.12
2019-05-20T16:25:50.133Z,25.72
2019-05-20T16:28:19.018Z,25.17
2019-05-20T16:30:47.928Z,24.98
2019-05-20T16:33:16.811Z,24.95
2019-05-20T16:35:45.726Z,25.25
2019-05-20T16:38:14.627Z,26.12
2019-05-20T16:40:43.565Z,26.90
2019-05-20T16:43:12.488Z,26.37
2019-05-20T16:45:41.387Z,27.43
2019-05-20T16:48:10.325Z,27.33
2019-05-20T16:50:39.213Z,26.77
2019-05-20T16:53:08.177Z,27.17
2019-05-20T16:55:37.094Z,27.65
2019-05-20T16:58:06.156Z,32.85
2019-05-20T17:00:35.057Z,29.55
2019-05-20T17:03:03.970Z,29.95
2019-05-20T17:05:32.969Z,33.98
2019-05-20T17:08:01.785Z,30.37
2019-05-20T17:10:30.699Z,29.90
2019-05-20T17:12:59.613Z,29.30
2019-05-20T17:15:28.515Z,29.43
2019-05-20T17:17:57.409Z,30.07
2019-05-20T17:20:26.313Z,30.03
2019-05-20T17:22:55.199Z,29.93
2019-05-20T17:25:24.149Z,28.73
2019-05-20T17:27:53.011Z,28.83
2019-05-20T17:30:21.891Z,28.07
2019-05-20T17:32:50.790Z,27.40
2019-05-20T17:35:19.691Z,28.27
2019-05-20T17:37:48.565Z,29.87
2019-05-20T17:40:17.479Z,31.17
2019-05-20T17:42:46.352Z,31.00
2019-05-20T17:45:15.264Z,29.97
2019-05-20T17:47:44.147Z,30.80
2019-05-20T17:50:13.067Z,30.80
2019-05-20T17:52:41.947Z,31.30
2019-05-20T17:55:10.826Z,32.40
2019-05-20T17:57:39.764Z,31.30
2019-05-20T18:00:08.755Z,31.97
2019-05-20T18:02:37.667Z,37.83
2019-05-20T18:05:06.764Z,32.87
2019-05-20T18:07:35.673Z,33.77
2019-05-20T18:10:04.968Z,33.20
2019-05-20T18:12:33.852Z,33.30
2019-05-20T18:15:03.496Z,32.23
2019-05-20T18:17:32.401Z,33.53
2019-05-20T18:20:01.330Z,33.47
2019-05-20T18:22:30.216Z,32.73
2019-05-20T18:24:59.139Z,32.57
2019-05-20T18:27:28.037Z,32.73
2019-05-20T18:29:56.948Z,32.73
2019-05-20T18:32:25.864Z,31.50
2019-05-20T18:34:54.777Z,31.60
2019-05-20T18:37:23.708Z,31.83
2019-05-20T18:39:52.605Z,30.17
2019-05-20T18:42:21.511Z,30.97
2019-05-20T18:44:50.434Z,30.57
2019-05-20T18:47:19.359Z,30.43
2019-05-20T18:49:48.242Z,31.13
2019-05-20T18:52:17.169Z,29.83
2019-05-20T18:54:46.086Z,28.73
2019-05-20T18:57:15.002Z,29.30
2019-05-20T18:59:43.902Z,29.13
2019-05-20T19:02:12.807Z,28.00
2019-05-20T19:04:41.772Z,28.30
2019-05-20T19:07:10.685Z,28.67
2019-05-20T19:09:39.571Z,32.75
2019-05-20T19:12:08.578Z,29.13
2019-05-20T19:14:37.469Z,29.87
2019-05-20T19:17:06.494Z,28.80
2019-05-20T19:19:35.392Z,30.70
2019-05-20T19:22:04.332Z,30.33
2019-05-20T19:24:33.310Z,31.97
2019-05-20T19:27:02.190Z,30.97
2019-05-20T19:29:31.044Z,32.47
2019-05-20T19:32:02.157Z,31.63
2019-05-20T19:34:28.877Z,31.27
2019-05-20T19:36:57.767Z,29.67
2019-05-20T19:39:26.680Z,29.27
2019-05-20T19:41:55.602Z,29.10
2019-05-20T19:44:24.538Z,28.80
2019-05-20T19:46:53.431Z,26.67
2019-05-20T19:49:22.325Z,26.70
2019-05-20T19:51:51.247Z,26.37
2019-05-20T19:54:20.134Z,26.93
2019-05-20T19:56:49.061Z,26.83
2019-05-20T19:59:17.976Z,27.40
2019-05-20T20:01:46.871Z,28.87
2019-05-20T20:04:15.794Z,29.40
2019-05-20T20:06:44.687Z,28.97
2019-05-20T20:09:13.597Z,30.17
2019-05-20T20:11:42.480Z,29.80
2019-05-20T20:14:11.460Z,29.40
2019-05-20T20:16:40.287Z,29.87
2019-05-20T20:19:09.333Z,28.63
2019-05-20T20:21:38.259Z,30.00
2019-05-20T20:24:09.428Z,30.37
2019-05-20T20:26:36.113Z,29.93
2019-05-20T20:29:05.129Z,28.70
2019-05-20T20:31:34.019Z,28.53
2019-05-20T20:34:02.897Z,28.37
2019-05-20T20:36:31.815Z,27.47
2019-05-20T20:39:00.708Z,27.57
2019-05-20T20:41:29.611Z,26.13
2019-05-20T20:43:58.529Z,27.13
2019-05-20T20:46:27.446Z,25.87
2019-05-20T20:48:56.328Z,31.90
2019-05-20T20:51:25.228Z,27.20
2019-05-20T20:53:54.152Z,26.33
2019-05-20T20:56:25.431Z,25.63
2019-05-20T20:58:51.987Z,24.77
2019-05-20T21:01:20.940Z,25.00
2019-05-20T21:03:49.857Z,22.87
2019-05-20T21:06:18.765Z,24.60
2019-05-20T21:08:47.732Z,23.30
2019-05-20T21:11:16.637Z,23.83
2019-05-20T21:13:45.572Z,24.83
2019-05-20T21:16:14.448Z,29.45
2019-05-20T21:18:43.384Z,25.10
2019-05-20T21:21:12.273Z,26.00
2019-05-20T21:23:41.177Z,26.83
2019-05-20T21:26:10.195Z,26.13
2019-05-20T21:28:39.075Z,26.50
2019-05-20T21:31:08.033Z,24.43
2019-05-20T21:33:36.923Z,24.50
2019-05-20T21:36:05.872Z,24.33
2019-05-20T21:38:34.787Z,24.17
2019-05-20T21:41:03.681Z,25.17
2019-05-20T21:43:32.600Z,25.07
2019-05-20T21:46:01.494Z,25.00
2019-05-20T21:48:30.413Z,24.73
2019-05-20T21:50:59.319Z,25.90
2019-05-20T21:53:28.235Z,25.70
2019-05-20T21:55:57.129Z,24.40
2019-05-20T21:58:26.052Z,24.47
2019-05-20T22:00:55.258Z,24.83
2019-05-20T22:03:25.265Z,23.80
2019-05-20T22:05:53.094Z,28.47
2019-05-20T22:08:21.990Z,24.40
2019-05-20T22:10:50.962Z,21.43
2019-05-20T22:13:19.815Z,22.40
2019-05-20T22:15:48.764Z,21.47
2019-05-20T22:18:17.651Z,21.37
2019-05-20T22:20:46.574Z,22.47
2019-05-20T22:23:49.632Z,23.93
2019-05-20T22:26:18.561Z,23.17
2019-05-20T22:28:47.477Z,22.73
2019-05-20T22:31:16.402Z,22.40
2019-05-20T22:33:45.281Z,27.75
2019-05-20T22:36:14.216Z,23.53
2019-05-20T22:38:43.120Z,21.47
2019-05-20T22:41:12.080Z,21.53
2019-05-20T22:43:40.960Z,19.93
2019-05-20T22:46:09.908Z,21.27
2019-05-20T22:48:38.820Z,21.37
2019-05-20T22:51:07.826Z,20.77
2019-05-20T22:53:36.729Z,19.30
2019-05-20T22:56:05.649Z,19.73
2019-05-20T22:58:38.262Z,20.07
2019-05-20T23:01:03.457Z,20.73
2019-05-20T23:03:32.369Z,21.03
2019-05-20T23:06:01.287Z,20.23
2019-05-20T23:08:30.175Z,21.43
2019-05-20T23:10:59.090Z,21.33
2019-05-20T23:13:27.970Z,21.67
2019-05-20T23:15:56.891Z,22.33
2019-05-20T23:18:25.810Z,20.57
2019-05-20T23:20:54.728Z,21.50
2019-05-20T23:23:23.674Z,22.70
2019-05-20T23:25:53.100Z,23.83
2019-05-20T23:28:21.437Z,24.93
2019-05-20T23:30:50.339Z,25.90
2019-05-20T23:33:19.269Z,24.70
2019-05-20T23:35:48.176Z,25.33
2019-05-20T23:38:17.164Z,25.93
2019-05-20T23:40:45.985Z,24.20
2019-05-20T23:43:14.899Z,24.90
2019-05-20T23:45:43.976Z,26.00
2019-05-20T23:48:12.883Z,25.33
2019-05-20T23:50:41.798Z,24.97
2019-05-20T23:53:10.799Z,25.83
2019-05-20T23:55:39.629Z,25.73
2019-05-20T23:58:08.572Z,25.53
